Time;durP1;ratioP1;P1;durP2;ratioP2;P2;SDS_P1;SDS_P2;PMS_P1;PMS_P2;Temp;Humidity;BMP_temperature;BMP_pressure;BME280_temperature;BME280_humidity;BME280_pressure;Samples;Min_cycle;Max_cycle;Signal;HPM_P1;HPM_P2
2023/10/03 04:26:42;;;;;;;22.30;15.53;;;11.80;99.90;;;;;;5996948;23;20351;-87
2023/10/03 04:56:50;;;;;;;27.90;20.07;;;11.60;99.90;;;;;;5927376;23;20220;-87
2023/10/03 05:12:31;;;;;;;28.57;20.47;;;11.70;99.90;;;;;;5506824;25;20261;-86
2023/10/03 05:43:08;;;;;;;28.93;20.30;;;12.90;99.90;;;;;;5643244;24;20217;-85
2023/10/03 06:13:23;;;;;;;17.77;13.40;;;14.10;99.90;;;;;;5636950;24;20179;-83
2023/10/03 06:38:44;;;;;;;15.33;9.27;;;15.50;99.90;;;;;;5623088;24;20183;-83
2023/10/03 07:44:38;;;;;;;11.80;6.60;;;18.40;99.90;;;;;;5494546;24;21019;-83
2023/10/03 08:00:06;;;;;;;9.43;6.43;;;18.70;99.90;;;;;;5460628;25;20327;-79
2023/10/03 08:25:05;;;;;;;9.37;6.23;;;19.30;99.90;;;;;;5445288;25;20637;-77
2023/10/03 08:40:38;;;;;;;7.20;5.97;;;19.80;95.90;;;;;;5540803;24;20179;-78
2023/10/03 09:56:44;;;;;;;7.15;5.80;;;21.30;89.70;;;;;;5644008;24;20340;-80
2023/10/03 10:16:39;;;;;;;11.15;6.40;;;21.70;86.40;;;;;;5650473;24;20740;-78
2023/10/03 10:57:15;;;;;;;7.75;6.13;;;22.60;82.10;;;;;;5868997;23;20762;-83
2023/10/03 11:18:05;;;;;;;9.43;5.50;;;23.30;79.30;;;;;;5777728;24;20262;-83
2023/10/03 11:57:58;;;;;;;7.45;5.65;;;24.20;71.20;;;;;;5424784;25;20569;-83
2023/10/03 12:18:57;;;;;;;7.95;4.97;;;24.90;68.00;;;;;;5559480;25;20599;-83
2023/10/03 12:39:18;;;;;;;6.78;4.28;;;25.20;66.20;;;;;;5579387;24;20175;-82
2023/10/03 13:34:31;;;;;;;7.40;4.88;;;25.70;62.90;;;;;;5599431;24;20666;-83
2023/10/03 14:00:22;;;;;;;7.63;4.78;;;25.50;63.40;;;;;;5651656;24;20755;-83
2023/10/03 14:45:44;;;;;;;8.35;5.10;;;25.00;64.20;;;;;;5753626;24;21024;-86
2023/10/03 15:11:19;;;;;;;7.50;5.05;;;24.70;64.70;;;;;;5718900;24;20189;-86
2023/10/03 15:36:32;;;;;;;9.57;5.20;;;24.00;66.90;;;;;;5820477;24;20172;-87
2023/10/03 16:27:06;;;;;;;8.35;5.30;;;22.60;82.10;;;;;;5766883;24;20213;-86
2023/10/03 17:12:47;;;;;;;9.18;5.72;;;22.20;86.30;;;;;;5681128;24;20580;-88
2023/10/03 17:43:25;;;;;;;8.93;5.82;;;22.00;89.00;;;;;;5849824;24;20219;-86
2023/10/03 18:08:40;;;;;;;7.88;6.32;;;21.50;91.20;;;;;;5767503;24;20190;-82
2023/10/03 18:28:40;;;;;;;11.10;7.38;;;21.20;91.50;;;;;;5763688;24;20960;-86
2023/10/03 18:59:37;;;;;;;14.50;8.77;;;20.60;92.70;;;;;;5916218;24;20151;-83
2023/10/03 19:09:37;;;;;;;14.20;8.80;;;20.50;92.90;;;;;;5974190;23;20181;-88
2023/10/03 19:30:07;;;;;;;15.17;8.90;;;20.30;92.10;;;;;;5818296;24;20289;-84
2023/10/03 19:34:25;;;;;;;14.65;8.63;;;20.20;91.60;;;;;;5765643;24;20673;-85
2023/10/03 20:00:29;;;;;;;15.60;9.73;;;20.20;92.10;;;;;;5772210;24;20201;-85
2023/10/03 20:20:37;;;;;;;16.30;8.33;;;20.00;92.50;;;;;;5688084;24;20234;-85
2023/10/03 20:50:38;;;;;;;16.83;9.33;;;19.40;96.60;;;;;;5944161;23;20404;-86
2023/10/03 21:11:16;;;;;;;14.97;8.50;;;19.20;98.60;;;;;;5902779;23;20174;-86
2023/10/03 21:31:25;;;;;;;13.77;8.13;;;19.20;98.50;;;;;;5740510;24;20356;-86
2023/10/03 22:07:12;;;;;;;14.40;5.80;;;20.50;99.90;;;;;;5947791;23;20254;-85
2023/10/03 22:27:30;;;;;;;6.00;3.60;;;17.80;99.90;;;;;;5851146;24;20179;-88
2023/10/03 22:57:15;;;;;;;7.00;4.17;;;16.20;99.90;;;;;;5735008;24;20615;-87
2023/10/03 23:17:34;;;;;;;7.50;4.33;;;15.20;99.90;;;;;;5582457;25;20438;-87
2023/10/03 23:43:35;;;;;;;10.50;4.83;;;14.90;99.90;;;;;;5866481;24;20216;-88
